sensor_id;sensor_type;location;lat;lon;timestamp;pressure;altitude;pressure_sealevel;temperature;humidity
70407;BME280;57821;52.202;0.154;2023-10-31T00:00:52;99803.56;;;9.11;91.43
70407;BME280;57821;52.202;0.154;2023-10-31T00:03:19;99802.72;;;9.09;91.61
70407;BME280;57821;52.202;0.154;2023-10-31T00:05:45;99807.03;;;9.08;91.95
70407;BME280;57821;52.202;0.154;2023-10-31T00:08:12;99804.47;;;9.07;92.20
70407;BME280;57821;52.202;0.154;2023-10-31T00:10:39;99819.13;;;9.06;92.31
70407;BME280;57821;52.202;0.154;2023-10-31T00:13:06;99813.97;;;9.06;92.97
70407;BME280;57821;52.202;0.154;2023-10-31T00:15:32;99813.09;;;9.06;93.38
70407;BME280;57821;52.202;0.154;2023-10-31T00:17:59;99807.06;;;9.07;92.99
70407;BME280;57821;52.202;0.154;2023-10-31T00:20:26;99812.25;;;9.05;93.29
70407;BME280;57821;52.202;0.154;2023-10-31T00:22:53;99822.59;;;9.05;93.50
70407;BME280;57821;52.202;0.154;2023-10-31T00:25:20;99820.88;;;9.04;93.02
70407;BME280;57821;52.202;0.154;2023-10-31T00:27:46;99815.75;;;9.01;93.52
70407;BME280;57821;52.202;0.154;2023-10-31T00:30:13;99819.19;;;9.02;93.36
70407;BME280;57821;52.202;0.154;2023-10-31T00:32:40;99815.75;;;9.00;93.21
70407;BME280;57821;52.202;0.154;2023-10-31T00:35:07;99822.66;;;8.99;93.17
70407;BME280;57821;52.202;0.154;2023-10-31T00:37:34;99816.63;;;8.97;93.25
70407;BME280;57821;52.202;0.154;2023-10-31T00:40:01;99823.59;;;8.95;93.11
70407;BME280;57821;52.202;0.154;2023-10-31T00:42:27;99824.44;;;8.94;93.15
70407;BME280;57821;52.202;0.154;2023-10-31T00:44:54;99821.88;;;8.93;93.21
70407;BME280;57821;52.202;0.154;2023-10-31T00:47:20;99815.84;;;8.92;92.64
70407;BME280;57821;52.202;0.154;2023-10-31T00:49:49;99821.06;;;8.89;92.36
70407;BME280;57821;52.202;0.154;2023-10-31T00:52:15;99821.09;;;8.86;92.95
70407;BME280;57821;52.202;0.154;2023-10-31T00:54:42;99827.16;;;8.84;92.69
70407;BME280;57821;52.202;0.154;2023-10-31T00:57:08;99836.66;;;8.83;92.42
70407;BME280;57821;52.202;0.154;2023-10-31T00:59:35;99842.69;;;8.82;92.98
70407;BME280;57821;52.202;0.154;2023-10-31T01:02:02;99844.47;;;8.77;92.70
70407;BME280;57821;52.202;0.154;2023-10-31T01:04:29;99845.38;;;8.73;92.30
70407;BME280;57821;52.202;0.154;2023-10-31T01:06:55;99845.41;;;8.70;92.55
70407;BME280;57821;52.202;0.154;2023-10-31T01:09:22;99844.59;;;8.65;92.19
70407;BME280;57821;52.202;0.154;2023-10-31T01:11:49;99845.50;;;8.61;91.90
70407;BME280;57821;52.202;0.154;2023-10-31T01:14:16;99848.09;;;8.56;92.26
70407;BME280;57821;52.202;0.154;2023-10-31T01:16:42;99840.47;;;8.49;91.61
70407;BME280;57821;52.202;0.154;2023-10-31T01:19:09;99847.34;;;8.50;91.79
70407;BME280;57821;52.202;0.154;2023-10-31T01:21:36;99849.06;;;8.48;92.01
70407;BME280;57821;52.202;0.154;2023-10-31T01:24:03;99854.25;;;8.45;92.10
70407;BME280;57821;52.202;0.154;2023-10-31T01:26:29;99854.28;;;8.42;91.83
70407;BME280;57821;52.202;0.154;2023-10-31T01:28:56;99849.13;;;8.39;92.22
70407;BME280;57821;52.202;0.154;2023-10-31T01:31:24;99844.03;;;8.36;92.06
70407;BME280;57821;52.202;0.154;2023-10-31T01:33:51;99843.19;;;8.32;92.08
70407;BME280;57821;52.202;0.154;2023-10-31T01:36:18;99842.31;;;8.29;92.30
70407;BME280;57821;52.202;0.154;2023-10-31T01:38:45;99844.94;;;8.25;92.09
70407;BME280;57821;52.202;0.154;2023-10-31T01:41:12;99856.13;;;8.24;92.14
70407;BME280;57821;52.202;0.154;2023-10-31T01:43:39;99850.13;;;8.22;92.58
70407;BME280;57821;52.202;0.154;2023-10-31T01:46:08;99851.84;;;8.22;91.98
70407;BME280;57821;52.202;0.154;2023-10-31T01:48:35;99857.91;;;8.19;92.84
70407;BME280;57821;52.202;0.154;2023-10-31T01:51:03;99863.06;;;8.19;92.22
70407;BME280;57821;52.202;0.154;2023-10-31T01:53:32;99853.63;;;8.15;92.67
70407;BME280;57821;52.202;0.154;2023-10-31T01:56:03;99867.38;;;8.17;92.63
70407;BME280;57821;52.202;0.154;2023-10-31T01:58:37;99867.38;;;8.16;92.72
70407;BME280;57821;52.202;0.154;2023-10-31T02:01:04;99880.34;;;8.14;92.18
70407;BME280;57821;52.202;0.154;2023-10-31T02:03:31;99875.19;;;8.11;92.57
70407;BME280;57821;52.202;0.154;2023-10-31T02:05:59;99881.19;;;8.10;92.02
70407;BME280;57821;52.202;0.154;2023-10-31T02:08:26;99885.53;;;8.08;92.03
70407;BME280;57821;52.202;0.154;2023-10-31T02:10:53;99877.81;;;8.04;92.73
70407;BME280;57821;52.202;0.154;2023-10-31T02:13:20;99879.56;;;8.02;92.05
70407;BME280;57821;52.202;0.154;2023-10-31T02:15:46;99874.44;;;7.97;91.85
70407;BME280;57821;52.202;0.154;2023-10-31T02:18:13;99867.56;;;7.95;92.52
70407;BME280;57821;52.202;0.154;2023-10-31T02:20:41;99867.59;;;7.92;92.67
70407;BME280;57821;52.202;0.154;2023-10-31T02:23:08;99870.19;;;7.90;93.10
70407;BME280;57821;52.202;0.154;2023-10-31T02:25:35;99873.66;;;7.86;92.39
70407;BME280;57821;52.202;0.154;2023-10-31T02:28:01;99880.50;;;7.87;92.37
70407;BME280;57821;52.202;0.154;2023-10-31T02:30:28;99883.13;;;7.84;92.42
70407;BME280;57821;52.202;0.154;2023-10-31T02:32:55;99889.19;;;7.80;92.31
70407;BME280;57821;52.202;0.154;2023-10-31T02:35:22;99883.16;;;7.76;92.09
70407;BME280;57821;52.202;0.154;2023-10-31T02:37:48;99889.22;;;7.74;92.36
70407;BME280;57821;52.202;0.154;2023-10-31T02:40:16;99885.78;;;7.69;92.43
70407;BME280;57821;52.202;0.154;2023-10-31T02:42:42;99888.41;;;7.66;92.29
70407;BME280;57821;52.202;0.154;2023-10-31T02:45:10;99881.53;;;7.62;92.41
70407;BME280;57821;52.202;0.154;2023-10-31T02:47:36;99878.97;;;7.59;91.82
70407;BME280;57821;52.202;0.154;2023-10-31T02:50:04;99877.25;;;7.58;92.13
70407;BME280;57821;52.202;0.154;2023-10-31T02:52:30;99875.56;;;7.54;92.16
70407;BME280;57821;52.202;0.154;2023-10-31T02:54:57;99874.72;;;7.50;91.88
70407;BME280;57821;52.202;0.154;2023-10-31T02:57:24;99877.31;;;7.49;92.70
70407;BME280;57821;52.202;0.154;2023-10-31T02:59:50;99873.91;;;7.43;92.24
70407;BME280;57821;52.202;0.154;2023-10-31T03:02:17;99871.31;;;7.42;91.98
70407;BME280;57821;52.202;0.154;2023-10-31T03:04:44;99873.06;;;7.38;91.53
70407;BME280;57821;52.202;0.154;2023-10-31T03:07:11;99868.78;;;7.34;91.66
70407;BME280;57821;52.202;0.154;2023-10-31T03:09:38;99872.22;;;7.30;92.53
70407;BME280;57821;52.202;0.154;2023-10-31T03:12:05;99868.78;;;7.31;91.49
70407;BME280;57821;52.202;0.154;2023-10-31T03:14:31;99870.50;;;7.29;91.67
70407;BME280;57821;52.202;0.154;2023-10-31T03:16:58;99876.56;;;7.27;91.95
70407;BME280;57821;52.202;0.154;2023-10-31T03:19:25;99872.25;;;7.24;91.89
70407;BME280;57821;52.202;0.154;2023-10-31T03:21:52;99877.44;;;7.21;92.43
70407;BME280;57821;52.202;0.154;2023-10-31T03:24:18;99887.75;;;7.21;91.12
70407;BME280;57821;52.202;0.154;2023-10-31T03:26:45;99889.47;;;7.19;91.83
70407;BME280;57821;52.202;0.154;2023-10-31T03:29:12;99886.03;;;7.17;91.21
70407;BME280;57821;52.202;0.154;2023-10-31T03:31:38;99885.19;;;7.14;91.43
70407;BME280;57821;52.202;0.154;2023-10-31T03:34:05;99889.50;;;7.13;91.19
70407;BME280;57821;52.202;0.154;2023-10-31T03:36:32;99890.34;;;7.11;91.64
70407;BME280;57821;52.202;0.154;2023-10-31T03:38:59;99879.19;;;7.07;91.80
70407;BME280;57821;52.202;0.154;2023-10-31T03:41:26;99877.50;;;7.03;91.29
70407;BME280;57821;52.202;0.154;2023-10-31T03:43:53;99882.66;;;7.01;91.49
70407;BME280;57821;52.202;0.154;2023-10-31T03:46:19;99888.66;;;6.99;91.62
70407;BME280;57821;52.202;0.154;2023-10-31T03:48:46;99891.28;;;6.97;91.71
70407;BME280;57821;52.202;0.154;2023-10-31T03:51:13;99884.41;;;6.95;92.03
70407;BME280;57821;52.202;0.154;2023-10-31T03:53:40;99877.50;;;6.94;91.90
70407;BME280;57821;52.202;0.154;2023-10-31T03:56:06;99873.25;;;6.91;92.51
70407;BME280;57821;52.202;0.154;2023-10-31T03:58:33;99875.81;;;6.90;91.99
70407;BME280;57821;52.202;0.154;2023-10-31T04:01:00;99881.84;;;6.89;92.91
70407;BME280;57821;52.202;0.154;2023-10-31T04:03:27;99877.56;;;6.86;91.47
70407;BME280;57821;52.202;0.154;2023-10-31T04:05:53;99872.41;;;6.85;92.16
70407;BME280;57821;52.202;0.154;2023-10-31T04:08:20;99875.84;;;6.84;92.41
70407;BME280;57821;52.202;0.154;2023-10-31T04:10:47;99875.84;;;6.82;92.53
70407;BME280;57821;52.202;0.154;2023-10-31T04:13:14;99876.72;;;6.81;92.03
70407;BME280;57821;52.202;0.154;2023-10-31T04:15:40;99877.56;;;6.80;91.83
70407;BME280;57821;52.202;0.154;2023-10-31T04:18:07;99865.53;;;6.78;92.60
70407;BME280;57821;52.202;0.154;2023-10-31T04:20:34;99868.97;;;6.77;92.05
70407;BME280;57821;52.202;0.154;2023-10-31T04:23:00;99875.00;;;6.74;93.00
70407;BME280;57821;52.202;0.154;2023-10-31T04:25:27;99879.31;;;6.74;93.07
70407;BME280;57821;52.202;0.154;2023-10-31T04:27:55;99878.44;;;6.73;92.89
70407;BME280;57821;52.202;0.154;2023-10-31T04:30:22;99880.16;;;6.71;92.20
70407;BME280;57821;52.202;0.154;2023-10-31T04:32:49;99879.28;;;6.71;93.21
70407;BME280;57821;52.202;0.154;2023-10-31T04:35:15;99887.91;;;6.70;92.18
70407;BME280;57821;52.202;0.154;2023-10-31T04:37:42;99886.19;;;6.69;92.53
70407;BME280;57821;52.202;0.154;2023-10-31T04:40:09;99887.91;;;6.68;93.30
70407;BME280;57821;52.202;0.154;2023-10-31T04:42:38;99884.47;;;6.65;93.28
70407;BME280;57821;52.202;0.154;2023-10-31T04:45:06;99887.91;;;6.67;92.54
70407;BME280;57821;52.202;0.154;2023-10-31T04:47:33;99891.34;;;6.67;93.10
70407;BME280;57821;52.202;0.154;2023-10-31T04:50:00;99892.19;;;6.68;92.46
70407;BME280;57821;52.202;0.154;2023-10-31T04:52:27;99893.06;;;6.67;93.80
70407;BME280;57821;52.202;0.154;2023-10-31T04:54:54;99893.06;;;6.67;93.12
70407;BME280;57821;52.202;0.154;2023-10-31T04:57:20;99892.19;;;6.68;93.04
70407;BME280;57821;52.202;0.154;2023-10-31T04:59:47;99893.06;;;6.68;94.03
70407;BME280;57821;52.202;0.154;2023-10-31T05:02:14;99886.16;;;6.72;94.59
70407;BME280;57821;52.202;0.154;2023-10-31T05:04:41;99885.28;;;6.76;94.53
70407;BME280;57821;52.202;0.154;2023-10-31T05:07:08;99883.59;;;6.78;94.93
70407;BME280;57821;52.202;0.154;2023-10-31T05:09:35;99882.69;;;6.82;95.50
70407;BME280;57821;52.202;0.154;2023-10-31T05:12:02;99889.59;;;6.86;95.27
70407;BME280;57821;52.202;0.154;2023-10-31T05:14:29;99887.84;;;6.88;95.63
70407;BME280;57821;52.202;0.154;2023-10-31T05:16:55;99899.03;;;6.91;94.73
70407;BME280;57821;52.202;0.154;2023-10-31T05:19:22;99899.84;;;6.95;94.83
70407;BME280;57821;52.202;0.154;2023-10-31T05:21:50;99907.56;;;6.99;95.07
70407;BME280;57821;52.202;0.154;2023-10-31T05:24:16;99901.56;;;7.02;95.72
70407;BME280;57821;52.202;0.154;2023-10-31T05:26:43;99911.84;;;7.05;96.09
70407;BME280;57821;52.202;0.154;2023-10-31T05:29:10;99915.28;;;7.07;95.43
70407;BME280;57821;52.202;0.154;2023-10-31T05:31:37;99918.72;;;7.09;95.37
70407;BME280;57821;52.202;0.154;2023-10-31T05:34:04;99917.84;;;7.12;95.29
70407;BME280;57821;52.202;0.154;2023-10-31T05:36:31;99923.88;;;7.12;94.58
70407;BME280;57821;52.202;0.154;2023-10-31T05:38:57;99921.28;;;7.12;94.68
70407;BME280;57821;52.202;0.154;2023-10-31T05:41:24;99916.97;;;7.11;94.84
70407;BME280;57821;52.202;0.154;2023-10-31T05:43:51;99920.44;;;7.10;94.35
70407;BME280;57821;52.202;0.154;2023-10-31T05:46:18;99925.59;;;7.09;94.93
70407;BME280;57821;52.202;0.154;2023-10-31T05:48:45;99918.72;;;7.09;95.07
70407;BME280;57821;52.202;0.154;2023-10-31T05:51:18;99924.75;;;7.04;95.41
70407;BME280;57821;52.202;0.154;2023-10-31T05:53:47;99920.47;;;7.04;95.07
70407;BME280;57821;52.202;0.154;2023-10-31T05:56:15;99928.19;;;7.07;94.78
70407;BME280;57821;52.202;0.154;2023-10-31T05:58:42;99928.19;;;7.07;94.97
70407;BME280;57821;52.202;0.154;2023-10-31T06:01:09;99928.16;;;7.06;94.86
70407;BME280;57821;52.202;0.154;2023-10-31T06:03:36;99931.63;;;7.06;94.63
70407;BME280;57821;52.202;0.154;2023-10-31T06:06:03;99938.47;;;7.06;94.96
70407;BME280;57821;52.202;0.154;2023-10-31T06:08:30;99945.34;;;7.05;94.53
70407;BME280;57821;52.202;0.154;2023-10-31T06:10:58;99927.31;;;7.05;94.35
70407;BME280;57821;52.202;0.154;2023-10-31T06:13:25;99938.50;;;7.07;95.06
70407;BME280;57821;52.202;0.154;2023-10-31T06:15:55;99933.34;;;7.07;94.95
70407;BME280;57821;52.202;0.154;2023-10-31T06:18:27;99932.47;;;7.08;94.71
70407;BME280;57821;52.202;0.154;2023-10-31T06:20:54;99939.34;;;7.09;94.54
70407;BME280;57821;52.202;0.154;2023-10-31T06:23:20;99930.75;;;7.12;95.06
70407;BME280;57821;52.202;0.154;2023-10-31T06:25:47;99935.91;;;7.13;95.54
70407;BME280;57821;52.202;0.154;2023-10-31T06:28:14;99939.34;;;7.15;95.21
70407;BME280;57821;52.202;0.154;2023-10-31T06:30:41;99941.91;;;7.18;95.51
70407;BME280;57821;52.202;0.154;2023-10-31T06:33:08;99948.78;;;7.21;95.72
70407;BME280;57821;52.202;0.154;2023-10-31T06:35:35;99960.78;;;7.25;96.53
70407;BME280;57821;52.202;0.154;2023-10-31T06:38:02;99965.06;;;7.30;96.33
70407;BME280;57821;52.202;0.154;2023-10-31T06:40:29;99958.16;;;7.35;96.79
70407;BME280;57821;52.202;0.154;2023-10-31T06:42:55;99963.31;;;7.41;97.06
70407;BME280;57821;52.202;0.154;2023-10-31T06:45:22;99968.44;;;7.48;97.44
70407;BME280;57821;52.202;0.154;2023-10-31T06:47:48;99963.25;;;7.52;97.72
70407;BME280;57821;52.202;0.154;2023-10-31T06:50:15;99963.25;;;7.58;97.68
70407;BME280;57821;52.202;0.154;2023-10-31T06:52:46;99975.25;;;7.64;98.24
70407;BME280;57821;52.202;0.154;2023-10-31T06:55:12;99972.66;;;7.70;97.89
70407;BME280;57821;52.202;0.154;2023-10-31T06:57:39;99960.56;;;7.76;98.06
70407;BME280;57821;52.202;0.154;2023-10-31T07:00:06;99966.56;;;7.83;98.30
70407;BME280;57821;52.202;0.154;2023-10-31T07:02:35;99970.84;;;7.89;98.24
70407;BME280;57821;52.202;0.154;2023-10-31T07:05:02;99968.22;;;7.95;98.31
70407;BME280;57821;52.202;0.154;2023-10-31T07:07:32;99976.81;;;8.01;98.85
70407;BME280;57821;52.202;0.154;2023-10-31T07:09:59;99976.78;;;8.07;98.78
70407;BME280;57821;52.202;0.154;2023-10-31T07:12:25;99972.44;;;8.14;98.35
70407;BME280;57821;52.202;0.154;2023-10-31T07:14:52;99969.81;;;8.18;98.12
70407;BME280;57821;52.202;0.154;2023-10-31T07:17:19;99970.63;;;8.22;98.61
70407;BME280;57821;52.202;0.154;2023-10-31T07:19:46;99980.94;;;8.30;98.88
70407;BME280;57821;52.202;0.154;2023-10-31T07:22:12;99975.78;;;8.33;98.95
70407;BME280;57821;52.202;0.154;2023-10-31T07:24:39;99980.06;;;8.37;98.39
70407;BME280;57821;52.202;0.154;2023-10-31T07:27:06;99983.47;;;8.42;98.81
70407;BME280;57821;52.202;0.154;2023-10-31T07:29:32;99984.28;;;8.45;98.90
70407;BME280;57821;52.202;0.154;2023-10-31T07:31:59;99993.75;;;8.48;98.71
70407;BME280;57821;52.202;0.154;2023-10-31T07:34:28;99994.56;;;8.51;98.92
70407;BME280;57821;52.202;0.154;2023-10-31T07:36:55;99992.84;;;8.55;99.01
70407;BME280;57821;52.202;0.154;2023-10-31T07:39:23;99990.22;;;8.59;98.84
70407;BME280;57821;52.202;0.154;2023-10-31T07:41:49;99998.78;;;8.63;98.73
70407;BME280;57821;52.202;0.154;2023-10-31T07:44:16;100004.81;;;8.65;98.82
70407;BME280;57821;52.202;0.154;2023-10-31T07:46:43;100009.06;;;8.69;99.11
70407;BME280;57821;52.202;0.154;2023-10-31T07:49:09;100009.06;;;8.72;99.52
70407;BME280;57821;52.202;0.154;2023-10-31T07:51:36;100012.47;;;8.77;99.19
70407;BME280;57821;52.202;0.154;2023-10-31T07:54:03;100014.16;;;8.81;99.67
70407;BME280;57821;52.202;0.154;2023-10-31T07:56:30;100014.97;;;8.86;99.42
70407;BME280;57821;52.202;0.154;2023-10-31T07:58:56;100007.16;;;8.92;99.68
70407;BME280;57821;52.202;0.154;2023-10-31T08:01:24;100009.69;;;8.97;99.75
70407;BME280;57821;52.202;0.154;2023-10-31T08:03:50;100015.69;;;9.03;99.93
70407;BME280;57821;52.202;0.154;2023-10-31T08:06:17;100013.88;;;9.12;99.46
70407;BME280;57821;52.202;0.154;2023-10-31T08:08:44;100019.00;;;9.18;100.00
70407;BME280;57821;52.202;0.154;2023-10-31T08:11:11;100022.38;;;9.26;100.00
70407;BME280;57821;52.202;0.154;2023-10-31T08:13:38;100027.44;;;9.35;100.00
70407;BME280;57821;52.202;0.154;2023-10-31T08:16:06;100028.25;;;9.43;100.00
70407;BME280;57821;52.202;0.154;2023-10-31T08:18:34;100032.44;;;9.53;100.00
70407;BME280;57821;52.202;0.154;2023-10-31T08:21:02;100023.75;;;9.60;100.00
70407;BME280;57821;52.202;0.154;2023-10-31T08:23:29;100040.00;;;9.71;100.00
70407;BME280;57821;52.202;0.154;2023-10-31T08:25:56;100031.25;;;9.80;100.00
70407;BME280;57821;52.202;0.154;2023-10-31T08:28:23;100028.56;;;9.87;100.00
70407;BME280;57821;52.202;0.154;2023-10-31T08:30:50;100032.78;;;9.96;100.00
70407;BME280;57821;52.202;0.154;2023-10-31T08:33:16;100032.66;;;10.05;100.00
70407;BME280;57821;52.202;0.154;2023-10-31T08:35:43;100028.28;;;10.12;100.00
70407;BME280;57821;52.202;0.154;2023-10-31T08:38:10;100029.03;;;10.20;100.00
70407;BME280;57821;52.202;0.154;2023-10-31T08:40:49;100035.88;;;10.25;100.00
70407;BME280;57821;52.202;0.154;2023-10-31T08:43:16;100036.63;;;10.32;100.00
70407;BME280;57821;52.202;0.154;2023-10-31T08:45:43;100040.03;;;10.37;100.00
70407;BME280;57821;52.202;0.154;2023-10-31T08:48:10;100036.47;;;10.44;99.92
70407;BME280;57821;52.202;0.154;2023-10-31T08:50:37;100035.56;;;10.48;100.00
70407;BME280;57821;52.202;0.154;2023-10-31T08:53:04;100035.53;;;10.50;100.00
70407;BME280;57821;52.202;0.154;2023-10-31T08:55:31;100027.66;;;10.57;99.23
70407;BME280;57821;52.202;0.154;2023-10-31T08:57:58;100029.31;;;10.61;99.43
70407;BME280;57821;52.202;0.154;2023-10-31T09:00:24;100024.09;;;10.64;98.60
70407;BME280;57821;52.202;0.154;2023-10-31T09:02:51;100033.53;;;10.67;98.43
70407;BME280;57821;52.202;0.154;2023-10-31T09:05:18;100036.09;;;10.68;98.30
70407;BME280;57821;52.202;0.154;2023-10-31T09:07:45;100036.06;;;10.72;98.16
70407;BME280;57821;52.202;0.154;2023-10-31T09:10:12;100026.50;;;10.75;98.08
70407;BME280;57821;52.202;0.154;2023-10-31T09:12:39;100028.16;;;10.79;98.41
70407;BME280;57821;52.202;0.154;2023-10-31T09:15:06;100034.16;;;10.83;98.37
70407;BME280;57821;52.202;0.154;2023-10-31T09:17:33;100034.97;;;10.86;98.44
70407;BME280;57821;52.202;0.154;2023-10-31T09:20:00;100036.63;;;10.90;97.65
70407;BME280;57821;52.202;0.154;2023-10-31T09:22:26;100039.16;;;10.95;97.71
70407;BME280;57821;52.202;0.154;2023-10-31T09:24:53;100044.22;;;11.01;98.59
70407;BME280;57821;52.202;0.154;2023-10-31T09:27:20;100051.03;;;11.08;98.22
70407;BME280;57821;52.202;0.154;2023-10-31T09:29:46;100046.56;;;11.16;97.98
70407;BME280;57821;52.202;0.154;2023-10-31T09:32:14;100047.25;;;11.26;97.78
70407;BME280;57821;52.202;0.154;2023-10-31T09:34:41;100048.78;;;11.37;98.67
70407;BME280;57821;52.202;0.154;2023-10-31T09:37:08;100052.88;;;11.49;98.33
70407;BME280;57821;52.202;0.154;2023-10-31T09:39:35;100057.06;;;11.58;96.99
70407;BME280;57821;52.202;0.154;2023-10-31T09:42:01;100048.28;;;11.65;96.77
70407;BME280;57821;52.202;0.154;2023-10-31T09:44:28;100037.72;;;11.74;96.78
70407;BME280;57821;52.202;0.154;2023-10-31T09:46:56;100042.81;;;11.80;97.04
70407;BME280;57821;52.202;0.154;2023-10-31T09:49:23;100048.66;;;11.89;97.45
70407;BME280;57821;52.202;0.154;2023-10-31T09:51:50;100055.34;;;12.03;98.40
70407;BME280;57821;52.202;0.154;2023-10-31T09:54:17;100064.63;;;12.14;97.58
70407;BME280;57821;52.202;0.154;2023-10-31T09:56:44;100059.22;;;12.23;97.48
70407;BME280;57821;52.202;0.154;2023-10-31T09:59:10;100059.94;;;12.30;96.34
70407;BME280;57821;52.202;0.154;2023-10-31T10:01:37;100060.69;;;12.35;96.39
70407;BME280;57821;52.202;0.154;2023-10-31T10:04:05;100058.03;;;12.38;94.93
70407;BME280;57821;52.202;0.154;2023-10-31T10:06:32;100062.38;;;12.38;94.33
70407;BME280;57821;52.202;0.154;2023-10-31T10:08:59;100059.78;;;12.38;94.09
70407;BME280;57821;52.202;0.154;2023-10-31T10:11:25;100059.81;;;12.36;94.44
70407;BME280;57821;52.202;0.154;2023-10-31T10:13:52;100068.50;;;12.35;93.91
70407;BME280;57821;52.202;0.154;2023-10-31T10:16:32;100063.28;;;12.35;94.85
70407;BME280;57821;52.202;0.154;2023-10-31T10:19:21;100058.91;;;12.37;94.90
70407;BME280;57821;52.202;0.154;2023-10-31T10:21:53;100063.16;;;12.41;95.35
70407;BME280;57821;52.202;0.154;2023-10-31T10:24:22;100066.47;;;12.48;95.33
70407;BME280;57821;52.202;0.154;2023-10-31T10:26:49;100064.56;;;12.56;95.67
70407;BME280;57821;52.202;0.154;2023-10-31T10:29:16;100068.63;;;12.67;96.25
70407;BME280;57821;52.202;0.154;2023-10-31T10:31:44;100064.09;;;12.75;97.04
70407;BME280;57821;52.202;0.154;2023-10-31T10:34:15;100052.63;;;12.84;96.56
70407;BME280;57821;52.202;0.154;2023-10-31T10:36:46;100054.09;;;12.94;96.40
70407;BME280;57821;52.202;0.154;2023-10-31T10:39:18;100046.97;;;13.02;96.12
70407;BME280;57821;52.202;0.154;2023-10-31T10:41:45;100055.44;;;13.10;95.79
70407;BME280;57821;52.202;0.154;2023-10-31T10:44:13;100065.72;;;13.16;95.30
70407;BME280;57821;52.202;0.154;2023-10-31T10:46:41;100061.31;;;13.20;93.84
70407;BME280;57821;52.202;0.154;2023-10-31T10:49:12;100052.72;;;13.16;93.40
70407;BME280;57821;52.202;0.154;2023-10-31T10:54:32;100051.66;;;13.24;93.61
70407;BME280;57821;52.202;0.154;2023-10-31T10:57:17;100047.34;;;13.23;93.63
70407;BME280;57821;52.202;0.154;2023-10-31T10:59:50;100056.75;;;13.28;93.04
70407;BME280;57821;52.202;0.154;2023-10-31T11:02:18;100048.94;;;13.28;92.94
70407;BME280;57821;52.202;0.154;2023-10-31T11:04:47;100051.50;;;13.30;93.04
70407;BME280;57821;52.202;0.154;2023-10-31T11:07:16;100048.84;;;13.33;93.10
70407;BME280;57821;52.202;0.154;2023-10-31T11:09:45;100055.72;;;13.35;92.40
70407;BME280;57821;52.202;0.154;2023-10-31T11:12:13;100060.84;;;13.38;93.17
70407;BME280;57821;52.202;0.154;2023-10-31T11:14:41;100064.25;;;13.40;93.12
70407;BME280;57821;52.202;0.154;2023-10-31T11:17:24;100058.19;;;13.40;93.28
70407;BME280;57821;52.202;0.154;2023-10-31T11:19:54;100064.78;;;13.53;92.68
70407;BME280;57821;52.202;0.154;2023-10-31T11:22:21;100068.13;;;13.58;92.82
70407;BME280;57821;52.202;0.154;2023-10-31T11:24:50;100069.78;;;13.62;92.39
70407;BME280;57821;52.202;0.154;2023-10-31T11:27:18;100073.88;;;13.69;92.70
70407;BME280;57821;52.202;0.154;2023-10-31T11:29:44;100064.13;;;13.77;92.36
70407;BME280;57821;52.202;0.154;2023-10-31T11:32:11;100057.88;;;13.83;92.00
70407;BME280;57821;52.202;0.154;2023-10-31T11:34:39;100059.59;;;13.84;91.59
70407;BME280;57821;52.202;0.154;2023-10-31T11:37:32;100057.84;;;13.84;90.93
70407;BME280;57821;52.202;0.154;2023-10-31T11:40:21;100060.47;;;13.84;91.25
70407;BME280;57821;52.202;0.154;2023-10-31T11:42:53;100061.22;;;13.88;91.06
70407;BME280;57821;52.202;0.154;2023-10-31T11:45:26;100061.19;;;13.89;90.61
70407;BME280;57821;52.202;0.154;2023-10-31T11:47:54;100069.00;;;13.89;90.63
70407;BME280;57821;52.202;0.154;2023-10-31T11:50:22;100069.94;;;13.87;89.83
70407;BME280;57821;52.202;0.154;2023-10-31T11:53:05;100068.31;;;13.83;90.13
70407;BME280;57821;52.202;0.154;2023-10-31T11:55:33;100068.31;;;13.83;89.81
70407;BME280;57821;52.202;0.154;2023-10-31T11:58:12;100076.25;;;13.78;89.47
70407;BME280;57821;52.202;0.154;2023-10-31T12:00:39;100073.69;;;13.77;89.06
70407;BME280;57821;52.202;0.154;2023-10-31T12:03:06;100087.72;;;13.73;89.33
70407;BME280;57821;52.202;0.154;2023-10-31T12:05:32;100085.16;;;13.70;89.73
70407;BME280;57821;52.202;0.154;2023-10-31T12:07:59;100085.31;;;13.65;89.18
70407;BME280;57821;52.202;0.154;2023-10-31T12:10:28;100081.13;;;13.58;89.12
70407;BME280;57821;52.202;0.154;2023-10-31T12:12:58;100089.94;;;13.54;88.70
70407;BME280;57821;52.202;0.154;2023-10-31T12:15:25;100077.06;;;13.48;89.30
70407;BME280;57821;52.202;0.154;2023-10-31T12:17:52;100077.19;;;13.45;88.61
70407;BME280;57821;52.202;0.154;2023-10-31T12:20:18;100078.09;;;13.42;89.19
70407;BME280;57821;52.202;0.154;2023-10-31T12:22:45;100073.66;;;13.46;89.18
70407;BME280;57821;52.202;0.154;2023-10-31T12:25:12;100081.41;;;13.49;89.88
70407;BME280;57821;52.202;0.154;2023-10-31T12:30:10;100077.63;;;13.61;90.37
70407;BME280;57821;52.202;0.154;2023-10-31T12:32:40;100076.63;;;13.65;90.62
70407;BME280;57821;52.202;0.154;2023-10-31T12:35:11;100080.84;;;13.69;90.57
70407;BME280;57821;52.202;0.154;2023-10-31T12:37:44;100082.41;;;13.76;90.36
70407;BME280;57821;52.202;0.154;2023-10-31T12:40:14;100072.78;;;13.79;90.56
70407;BME280;57821;52.202;0.154;2023-10-31T12:42:42;100080.41;;;13.85;90.85
70407;BME280;57821;52.202;0.154;2023-10-31T12:45:11;100071.50;;;13.92;90.78
70407;BME280;57821;52.202;0.154;2023-10-31T12:47:38;100080.00;;;13.99;90.45
70407;BME280;57821;52.202;0.154;2023-10-31T12:50:14;100080.69;;;14.06;90.25
70407;BME280;57821;52.202;0.154;2023-10-31T12:55:15;100079.78;;;14.08;89.16
70407;BME280;57821;52.202;0.154;2023-10-31T12:57:45;100090.88;;;14.15;89.01
70407;BME280;57821;52.202;0.154;2023-10-31T13:00:14;100089.97;;;14.16;88.58
70407;BME280;57821;52.202;0.154;2023-10-31T13:02:41;100094.25;;;14.18;89.09
70407;BME280;57821;52.202;0.154;2023-10-31T13:07:35;100076.75;;;14.22;87.48
70407;BME280;57821;52.202;0.154;2023-10-31T13:10:04;100085.38;;;14.24;87.68
70407;BME280;57821;52.202;0.154;2023-10-31T13:12:31;100088.00;;;14.24;87.66
70407;BME280;57821;52.202;0.154;2023-10-31T13:14:57;100090.59;;;14.24;87.39